createdAt,value
2022-11-09T00:01:49.286Z,2.43
2022-11-09T00:04:17.505Z,2.03
2022-11-09T00:06:45.764Z,2.38
2022-11-09T00:09:14.145Z,2.70
2022-11-09T00:11:43.774Z,2.30
2022-11-09T00:14:15.714Z,2.20
2022-11-09T00:16:43.988Z,1.85
2022-11-09T00:19:13.196Z,2.35
2022-11-09T00:21:41.724Z,1.77
2022-11-09T00:24:09.991Z,1.83
2022-11-09T00:26:38.219Z,2.30
2022-11-09T00:29:08.006Z,2.20
2022-11-09T00:31:36.436Z,2.20
2022-11-09T00:34:04.768Z,2.03
2022-11-09T00:36:32.980Z,2.20
2022-11-09T00:39:01.807Z,2.33
2022-11-09T00:41:30.133Z,2.40
2022-11-09T00:43:58.416Z,2.00
2022-11-09T00:46:28.267Z,2.47
2022-11-09T00:48:56.902Z,1.88
2022-11-09T00:51:25.168Z,2.22
2022-11-09T00:53:54.768Z,2.40
2022-11-09T00:56:23.325Z,2.10
2022-11-09T00:58:54.179Z,2.03
2022-11-09T01:01:22.552Z,2.53
2022-11-09T01:03:52.202Z,2.10
2022-11-09T01:06:21.311Z,1.60
2022-11-09T01:08:49.676Z,2.55
2022-11-09T01:11:18.879Z,2.22
2022-11-09T01:13:47.104Z,2.03
2022-11-09T01:16:17.428Z,2.70
2022-11-09T01:18:46.003Z,2.40
2022-11-09T01:21:16.779Z,2.10
2022-11-09T01:23:45.072Z,1.73
2022-11-09T01:26:14.131Z,2.00
2022-11-09T01:28:42.803Z,2.45
2022-11-09T01:31:12.472Z,2.60
2022-11-09T01:33:40.838Z,2.17
2022-11-09T01:36:09.796Z,2.37
2022-11-09T01:38:39.952Z,2.10
2022-11-09T01:41:09.432Z,2.67
2022-11-09T01:43:37.684Z,2.67
2022-11-09T01:46:07.498Z,2.50
2022-11-09T01:48:37.894Z,2.50
2022-11-09T01:51:08.952Z,2.63
2022-11-09T01:53:41.896Z,2.60
2022-11-09T01:56:11.199Z,2.60
2022-11-09T01:58:41.221Z,2.30
2022-11-09T02:01:11.317Z,2.20
2022-11-09T02:03:40.980Z,3.13
2022-11-09T02:06:11.175Z,2.70
2022-11-09T02:08:41.187Z,2.50
2022-11-09T02:11:10.659Z,2.35
2022-11-09T02:13:40.097Z,2.50
2022-11-09T02:16:09.105Z,1.73
2022-11-09T02:18:38.311Z,2.50
2022-11-09T02:21:08.134Z,2.47
2022-11-09T02:23:36.339Z,1.60
2022-11-09T02:26:08.077Z,2.00
2022-11-09T02:28:37.227Z,2.30
2022-11-09T02:31:07.106Z,2.20
2022-11-09T02:33:43.845Z,2.65
2022-11-09T02:36:13.456Z,2.75
2022-11-09T02:38:41.677Z,2.00
2022-11-09T02:41:10.030Z,2.60
2022-11-09T02:43:38.475Z,2.65
2022-11-09T02:46:06.853Z,2.60
2022-11-09T02:48:35.046Z,2.53
2022-11-09T02:51:03.298Z,2.40
2022-11-09T02:53:32.904Z,2.10
2022-11-09T02:56:02.275Z,2.60
2022-11-09T02:58:30.552Z,1.80
2022-11-09T03:00:58.859Z,2.30
2022-11-09T03:03:27.124Z,2.40
2022-11-09T03:05:55.396Z,2.30
2022-11-09T03:08:23.605Z,2.40
2022-11-09T03:10:53.195Z,2.17
2022-11-09T03:13:21.676Z,2.72
2022-11-09T03:15:50.042Z,2.58
2022-11-09T03:18:18.255Z,2.10
2022-11-09T03:20:46.490Z,2.47
2022-11-09T03:23:14.690Z,2.20
2022-11-09T03:25:42.894Z,2.42
2022-11-09T03:28:12.464Z,2.80
2022-11-09T03:30:40.668Z,2.10
2022-11-09T03:33:10.265Z,2.40
2022-11-09T03:35:38.596Z,1.70
2022-11-09T03:38:06.897Z,2.00
2022-11-09T03:40:35.138Z,2.90
2022-11-09T03:43:03.391Z,2.22
2022-11-09T03:45:33.127Z,1.90
2022-11-09T03:48:01.343Z,1.90
2022-11-09T03:50:30.005Z,1.90
2022-11-09T03:52:58.239Z,2.10
2022-11-09T03:55:26.504Z,2.10
2022-11-09T03:57:54.857Z,2.40
2022-11-09T04:00:23.989Z,2.45
2022-11-09T04:02:53.721Z,1.90
2022-11-09T04:05:22.242Z,2.03
2022-11-09T04:07:51.002Z,2.03
2022-11-09T04:10:19.778Z,2.08
2022-11-09T04:12:48.196Z,2.00
2022-11-09T04:15:16.636Z,2.20
2022-11-09T04:17:45.631Z,2.20
2022-11-09T04:20:15.219Z,2.42
2022-11-09T04:22:43.472Z,1.80
2022-11-09T04:25:11.675Z,2.13
2022-11-09T04:27:39.931Z,2.10
2022-11-09T04:30:08.762Z,2.60
2022-11-09T04:32:36.978Z,1.92
2022-11-09T04:35:05.382Z,2.00
2022-11-09T04:37:34.960Z,2.17
2022-11-09T04:40:03.440Z,2.10
2022-11-09T04:42:31.660Z,2.30
2022-11-09T04:44:59.876Z,2.00
2022-11-09T04:47:29.207Z,2.00
2022-11-09T04:49:57.430Z,2.60
2022-11-09T04:52:25.628Z,2.20
2022-11-09T04:54:55.363Z,1.35
2022-11-09T04:57:23.566Z,1.67
2022-11-09T04:59:52.024Z,1.92
2022-11-09T05:02:20.268Z,2.00
2022-11-09T05:04:48.520Z,1.67
2022-11-09T05:07:16.915Z,2.40
2022-11-09T05:09:45.177Z,2.03
2022-11-09T05:12:14.880Z,2.17
2022-11-09T05:14:43.137Z,1.80
2022-11-09T05:17:11.400Z,1.98
2022-11-09T05:19:39.612Z,2.00
2022-11-09T05:22:21.737Z,2.33
2022-11-09T05:24:51.737Z,1.73
2022-11-09T05:27:21.336Z,1.60
2022-11-09T05:29:49.603Z,2.00
2022-11-09T05:32:17.799Z,1.90
2022-11-09T05:34:46.073Z,2.10
2022-11-09T05:37:14.267Z,2.30
2022-11-09T05:39:42.462Z,1.60
2022-11-09T05:42:10.679Z,2.30
2022-11-09T05:44:40.262Z,2.50
2022-11-09T05:47:08.578Z,2.05
2022-11-09T05:49:36.783Z,1.60
2022-11-09T05:52:05.031Z,2.40
2022-11-09T05:54:33.267Z,2.20
2022-11-09T05:57:02.106Z,2.42
2022-11-09T05:59:30.338Z,2.40
2022-11-09T06:01:59.997Z,2.00
2022-11-09T06:04:28.255Z,2.10
2022-11-09T06:06:56.704Z,2.10
2022-11-09T06:09:25.064Z,2.10
2022-11-09T06:11:53.341Z,2.05
2022-11-09T06:14:21.563Z,2.60
2022-11-09T06:16:49.796Z,2.25
2022-11-09T06:19:19.383Z,2.10
2022-11-09T06:21:47.599Z,2.10
2022-11-09T06:24:16.046Z,2.80
2022-11-09T06:26:44.296Z,2.30
2022-11-09T06:29:12.487Z,2.47
2022-11-09T06:31:40.707Z,2.40
2022-11-09T06:34:09.128Z,2.30
2022-11-09T06:36:38.710Z,2.08
2022-11-09T06:39:08.950Z,2.90
2022-11-09T06:41:37.252Z,2.30
2022-11-09T06:44:06.405Z,2.80
2022-11-09T06:46:34.996Z,2.67
2022-11-09T06:49:03.223Z,2.40
2022-11-09T06:51:31.554Z,2.90
2022-11-09T06:54:01.137Z,2.37
2022-11-09T06:56:29.477Z,2.38
2022-11-09T06:58:57.693Z,2.47
2022-11-09T07:01:28.903Z,2.88
2022-11-09T07:03:57.222Z,2.00
2022-11-09T07:06:25.535Z,2.60
2022-11-09T07:08:56.802Z,2.70
2022-11-09T07:11:26.395Z,2.30
2022-11-09T07:13:57.413Z,2.13
2022-11-09T07:16:26.082Z,2.80
2022-11-09T07:18:54.291Z,2.88
2022-11-09T07:21:22.699Z,2.22
2022-11-09T07:23:51.095Z,2.65
2022-11-09T07:26:19.319Z,2.30
2022-11-09T07:28:48.915Z,3.10
2022-11-09T07:31:17.143Z,2.38
2022-11-09T07:33:45.397Z,2.60
2022-11-09T07:36:18.279Z,2.50
2022-11-09T07:38:49.234Z,2.60
2022-11-09T07:41:17.456Z,2.63
2022-11-09T07:43:45.663Z,2.40
2022-11-09T07:46:15.313Z,2.20
2022-11-09T07:48:43.533Z,2.10
2022-11-09T07:51:11.775Z,2.20
2022-11-09T07:53:40.046Z,3.20
2022-11-09T07:56:08.552Z,2.20
2022-11-09T07:58:36.971Z,2.80
2022-11-09T08:01:08.454Z,2.30
2022-11-09T08:03:38.403Z,2.92
2022-11-09T08:06:06.935Z,2.63
2022-11-09T08:08:35.232Z,2.78
2022-11-09T08:11:03.456Z,3.00
2022-11-09T08:13:31.723Z,2.28
2022-11-09T08:16:02.503Z,2.50
2022-11-09T08:18:30.793Z,2.80
2022-11-09T08:21:03.215Z,2.47
2022-11-09T08:23:31.698Z,3.00
2022-11-09T08:26:03.658Z,2.40
2022-11-09T08:28:31.882Z,2.50
2022-11-09T08:31:01.196Z,2.90
2022-11-09T08:33:30.820Z,3.00
2022-11-09T08:36:00.430Z,2.50
2022-11-09T08:38:28.666Z,2.57
2022-11-09T08:41:00.294Z,2.80
2022-11-09T08:43:28.710Z,2.75
2022-11-09T08:45:56.950Z,3.40
2022-11-09T08:48:25.162Z,2.80
2022-11-09T08:50:54.328Z,2.67
2022-11-09T08:53:23.901Z,3.13
2022-11-09T08:55:52.124Z,2.50
2022-11-09T08:58:21.474Z,3.25
2022-11-09T09:00:50.083Z,3.42
2022-11-09T09:03:18.512Z,3.13
2022-11-09T09:05:46.714Z,3.15
2022-11-09T09:08:15.650Z,3.10
2022-11-09T09:10:45.313Z,2.83
2022-11-09T09:13:13.523Z,2.60
2022-11-09T09:15:41.759Z,3.00
2022-11-09T09:18:10.093Z,3.20
2022-11-09T09:20:38.350Z,3.10
2022-11-09T09:23:06.560Z,2.75
2022-11-09T09:25:34.797Z,3.05
2022-11-09T09:28:04.362Z,3.20
2022-11-09T09:30:32.686Z,3.30
2022-11-09T09:33:02.741Z,3.17
2022-11-09T09:35:30.957Z,3.20
2022-11-09T09:37:59.215Z,3.20
2022-11-09T09:40:31.222Z,3.30
2022-11-09T09:42:59.592Z,2.70
2022-11-09T09:45:30.464Z,3.20
2022-11-09T09:48:00.823Z,3.92
2022-11-09T09:50:31.273Z,3.10
2022-11-09T09:53:23.143Z,2.65
2022-11-09T09:55:55.086Z,3.00
2022-11-09T09:58:26.526Z,3.20
2022-11-09T10:00:58.948Z,2.40
2022-11-09T10:03:27.191Z,2.72
2022-11-09T10:05:59.645Z,3.10
2022-11-09T10:08:33.521Z,2.60
2022-11-09T10:11:08.049Z,2.40
2022-11-09T10:13:41.940Z,2.28
2022-11-09T10:16:14.874Z,2.40
2022-11-09T10:18:49.244Z,3.10
2022-11-09T10:21:23.652Z,2.42
2022-11-09T10:24:06.787Z,2.17
2022-11-09T10:26:38.193Z,2.50
2022-11-09T10:29:17.176Z,2.50
2022-11-09T10:31:47.603Z,2.45
2022-11-09T10:34:18.784Z,2.60
2022-11-09T10:36:49.224Z,2.15
2022-11-09T10:39:17.593Z,2.27
2022-11-09T10:41:47.146Z,2.50
2022-11-09T10:44:17.797Z,2.53
2022-11-09T10:47:07.909Z,2.45
2022-11-09T10:49:36.442Z,2.37
2022-11-09T10:52:05.126Z,2.55
2022-11-09T10:54:35.136Z,2.17
2022-11-09T10:57:07.079Z,2.33
2022-11-09T10:59:41.560Z,2.20
2022-11-09T11:02:24.654Z,2.60
2022-11-09T11:04:54.316Z,2.50
2022-11-09T11:07:23.703Z,2.92
2022-11-09T11:09:52.021Z,2.20
2022-11-09T11:12:21.229Z,2.80
2022-11-09T11:14:49.552Z,2.83
2022-11-09T11:17:22.953Z,2.45
2022-11-09T11:19:51.234Z,3.10
2022-11-09T11:22:23.751Z,2.47
2022-11-09T11:25:01.353Z,2.13
2022-11-09T11:27:31.993Z,1.80
2022-11-09T11:30:03.674Z,1.90
2022-11-09T11:32:32.022Z,1.70
2022-11-09T11:35:01.672Z,1.70
2022-11-09T11:37:37.868Z,1.80
2022-11-09T11:40:07.933Z,1.60
2022-11-09T11:42:43.943Z,1.33
2022-11-09T11:45:39.493Z,1.23
2022-11-09T11:48:15.224Z,1.10
2022-11-09T11:50:45.885Z,1.00
2022-11-09T11:53:19.601Z,1.10
2022-11-09T11:56:08.192Z,1.40
2022-11-09T11:58:47.640Z,1.13
2022-11-09T12:01:22.874Z,1.00
2022-11-09T12:04:03.237Z,1.10
2022-11-09T12:06:39.781Z,1.10
2022-11-09T12:09:27.171Z,1.52
2022-11-09T12:12:03.078Z,1.30
2022-11-09T12:14:36.711Z,1.30
2022-11-09T12:17:09.499Z,1.33
2022-11-09T12:19:46.396Z,1.80
2022-11-09T12:22:18.113Z,1.50
2022-11-09T12:24:51.466Z,1.93
2022-11-09T12:27:33.001Z,1.77
2022-11-09T12:30:05.215Z,1.70
2022-11-09T12:32:38.107Z,2.80
2022-11-09T12:35:17.991Z,1.88
2022-11-09T12:37:48.530Z,1.60
2022-11-09T12:40:22.727Z,1.80
2022-11-09T12:42:55.328Z,1.90
2022-11-09T12:45:27.359Z,2.20
2022-11-09T12:47:59.422Z,1.75
2022-11-09T12:50:29.192Z,1.63
2022-11-09T12:52:58.309Z,1.57
2022-11-09T12:55:30.378Z,1.38
2022-11-09T12:58:01.029Z,1.40
2022-11-09T13:00:45.942Z,1.13
2022-11-09T13:03:17.885Z,1.23
2022-11-09T13:05:48.582Z,1.45
2022-11-09T13:08:19.439Z,1.33
2022-11-09T13:10:47.741Z,1.50
2022-11-09T13:13:25.558Z,1.50
2022-11-09T13:16:11.887Z,1.40
2022-11-09T13:18:51.932Z,1.20
2022-11-09T13:21:39.127Z,1.70
2022-11-09T13:24:28.533Z,1.92
2022-11-09T13:26:58.486Z,1.30
2022-11-09T13:29:28.928Z,1.52
2022-11-09T13:32:24.467Z,1.67
2022-11-09T13:34:54.392Z,1.13
2022-11-09T13:37:38.976Z,1.40
2022-11-09T13:40:25.994Z,1.10
2022-11-09T13:42:57.771Z,1.40
2022-11-09T13:45:31.715Z,1.50
2022-11-09T13:48:00.106Z,1.60
2022-11-09T13:50:29.442Z,1.38
2022-11-09T13:52:58.789Z,1.38
2022-11-09T13:55:30.824Z,1.30
2022-11-09T13:58:01.619Z,1.70
2022-11-09T14:00:31.220Z,1.50
2022-11-09T14:03:06.563Z,1.70
2022-11-09T14:05:37.599Z,1.80
2022-11-09T14:08:06.803Z,1.45
2022-11-09T14:10:47.000Z,1.70
2022-11-09T14:13:21.196Z,1.60
2022-11-09T14:15:54.509Z,1.60
2022-11-09T14:18:26.480Z,1.20
2022-11-09T14:20:58.641Z,1.20
2022-11-09T14:23:30.624Z,1.80
2022-11-09T14:25:58.890Z,1.70
2022-11-09T14:28:29.436Z,1.80
2022-11-09T14:30:59.095Z,1.85
2022-11-09T14:33:28.305Z,1.73
2022-11-09T14:35:58.419Z,1.60
2022-11-09T14:38:27.875Z,1.70
2022-11-09T14:40:56.270Z,1.97
2022-11-09T14:43:28.595Z,1.42
2022-11-09T14:45:58.037Z,1.80
2022-11-09T14:48:27.901Z,2.40
2022-11-09T14:50:57.250Z,1.92
2022-11-09T14:53:27.046Z,1.98
2022-11-09T14:55:56.226Z,1.93
2022-11-09T14:58:24.682Z,1.80
2022-11-09T15:01:09.189Z,2.30
2022-11-09T15:03:39.052Z,2.10
2022-11-09T15:06:08.669Z,2.40
2022-11-09T15:08:40.249Z,1.40
2022-11-09T15:11:08.663Z,1.80
2022-11-09T15:13:38.937Z,1.85
2022-11-09T15:16:09.612Z,1.70
2022-11-09T15:18:44.573Z,1.92
2022-11-09T15:21:13.720Z,1.60
2022-11-09T15:23:42.835Z,1.70
2022-11-09T15:26:26.545Z,1.50
2022-11-09T15:28:54.820Z,1.30
2022-11-09T15:31:25.788Z,1.60
2022-11-09T15:33:55.984Z,1.83
2022-11-09T15:36:28.616Z,1.30
2022-11-09T15:38:58.848Z,1.30
2022-11-09T15:41:27.479Z,1.80
2022-11-09T15:43:56.032Z,2.00
2022-11-09T15:46:26.093Z,1.50
2022-11-09T15:48:57.998Z,1.30
2022-11-09T15:51:27.188Z,1.00
2022-11-09T15:53:55.444Z,1.20
2022-11-09T15:56:25.674Z,1.10
2022-11-09T15:58:53.950Z,1.30
2022-11-09T16:01:22.207Z,1.20
2022-11-09T16:03:50.494Z,1.20
2022-11-09T16:06:22.349Z,1.20
2022-11-09T16:08:50.840Z,1.40
2022-11-09T16:11:19.433Z,1.60
2022-11-09T16:13:47.660Z,1.00
2022-11-09T16:16:16.675Z,1.20
2022-11-09T16:18:44.925Z,1.40
2022-11-09T16:21:13.859Z,1.10
2022-11-09T16:23:43.664Z,1.50
2022-11-09T16:26:12.843Z,1.27
2022-11-09T16:28:41.146Z,1.10
2022-11-09T16:31:09.523Z,1.60
2022-11-09T16:33:38.093Z,1.42
2022-11-09T16:36:07.804Z,1.60
2022-11-09T16:38:38.319Z,1.60
2022-11-09T16:41:08.133Z,1.10
2022-11-09T16:43:38.175Z,1.10
2022-11-09T16:46:06.735Z,1.10
2022-11-09T16:48:35.450Z,1.77
2022-11-09T16:51:03.862Z,1.70
2022-11-09T16:53:32.553Z,1.20
2022-11-09T16:56:00.788Z,1.30
2022-11-09T16:58:30.393Z,2.03
2022-11-09T17:01:16.485Z,1.20
2022-11-09T17:03:46.984Z,1.40
2022-11-09T17:06:15.263Z,1.30
2022-11-09T17:08:43.595Z,1.50
2022-11-09T17:11:12.338Z,1.70
2022-11-09T17:13:42.097Z,1.30
2022-11-09T17:16:11.647Z,1.10
2022-11-09T17:18:39.973Z,1.30
2022-11-09T17:21:10.967Z,1.70
2022-11-09T17:23:39.273Z,1.70
2022-11-09T17:26:08.224Z,1.63
2022-11-09T17:28:41.474Z,1.30
2022-11-09T17:31:13.051Z,1.40
2022-11-09T17:33:41.473Z,1.70
2022-11-09T17:36:11.168Z,1.50
2022-11-09T17:38:39.633Z,1.30
2022-11-09T17:41:08.636Z,1.70
2022-11-09T17:43:38.671Z,1.40
2022-11-09T17:46:07.443Z,1.70
2022-11-09T17:48:37.688Z,1.23
2022-11-09T17:51:06.397Z,1.20
2022-11-09T17:53:34.677Z,1.30
2022-11-09T17:56:03.514Z,1.20
2022-11-09T17:58:32.095Z,1.50
2022-11-09T18:01:06.319Z,2.13
2022-11-09T18:03:34.668Z,1.30
2022-11-09T18:06:04.543Z,1.48
2022-11-09T18:08:32.764Z,1.50
2022-11-09T18:11:00.968Z,1.58
2022-11-09T18:13:29.495Z,1.10
2022-11-09T18:15:57.717Z,1.08
2022-11-09T18:18:25.945Z,1.40
2022-11-09T18:20:54.178Z,1.20
2022-11-09T18:23:24.470Z,1.90
2022-11-09T18:25:59.029Z,1.40
2022-11-09T18:28:27.292Z,1.73
2022-11-09T18:31:00.673Z,1.80
2022-11-09T18:33:29.172Z,1.65
2022-11-09T18:35:58.074Z,1.50
2022-11-09T18:38:29.625Z,2.20
2022-11-09T18:40:59.706Z,2.38
2022-11-09T18:43:28.022Z,2.60
2022-11-09T18:45:57.302Z,2.45
2022-11-09T18:48:25.548Z,2.30
2022-11-09T18:50:53.924Z,2.00
2022-11-09T18:53:22.757Z,2.50
2022-11-09T18:55:52.542Z,2.47
2022-11-09T18:58:21.270Z,2.75
2022-11-09T19:00:58.486Z,2.27
2022-11-09T19:03:26.812Z,2.53
2022-11-09T19:05:55.125Z,1.88
2022-11-09T19:08:37.413Z,2.00
2022-11-09T19:11:08.076Z,2.30
2022-11-09T19:13:36.339Z,2.13
2022-11-09T19:16:07.392Z,1.70
2022-11-09T19:18:35.911Z,1.90
2022-11-09T19:21:04.329Z,2.00
2022-11-09T19:23:34.658Z,2.03
2022-11-09T19:26:03.183Z,2.40
2022-11-09T19:28:32.762Z,2.05
2022-11-09T19:31:00.971Z,2.38
2022-11-09T19:33:29.209Z,2.30
2022-11-09T19:36:28.188Z,2.33
2022-11-09T19:38:47.241Z,2.87
2022-11-09T19:41:15.477Z,2.60
2022-11-09T19:43:45.261Z,2.50
2022-11-09T19:46:13.494Z,2.35
2022-11-09T19:48:45.133Z,2.80
2022-11-09T19:51:14.820Z,2.53
2022-11-09T19:53:43.295Z,2.80
2022-11-09T19:56:12.065Z,2.47
2022-11-09T19:58:40.392Z,2.90
2022-11-09T20:01:10.814Z,2.65
2022-11-09T20:03:39.398Z,2.80
2022-11-09T20:06:08.209Z,2.92
2022-11-09T20:08:37.436Z,2.28
2022-11-09T20:11:06.365Z,2.70
2022-11-09T20:13:34.731Z,2.83
2022-11-09T20:16:03.367Z,2.47
2022-11-09T20:18:33.005Z,2.40
2022-11-09T20:21:01.255Z,1.75
2022-11-09T20:23:29.496Z,2.78
2022-11-09T20:26:04.546Z,2.28
2022-11-09T20:28:32.758Z,2.30
2022-11-09T20:31:00.992Z,1.98
2022-11-09T20:33:29.503Z,2.10
2022-11-09T20:35:59.132Z,2.50
2022-11-09T20:38:27.415Z,2.50
2022-11-09T20:40:56.365Z,2.55
2022-11-09T20:43:24.976Z,2.50
2022-11-09T20:45:53.494Z,2.60
2022-11-09T20:48:46.926Z,3.00
2022-11-09T20:51:13.092Z,2.70
2022-11-09T20:53:41.305Z,2.75
2022-11-09T20:56:09.856Z,2.40
2022-11-09T20:58:38.115Z,2.70
2022-11-09T21:01:07.657Z,2.20
2022-11-09T21:03:36.455Z,2.37
2022-11-09T21:06:06.452Z,2.25
2022-11-09T21:08:36.394Z,2.72
2022-11-09T21:11:05.616Z,3.00
2022-11-09T21:13:33.969Z,2.50
2022-11-09T21:16:06.136Z,1.83
2022-11-09T21:18:34.548Z,2.75
2022-11-09T21:21:06.335Z,2.20
2022-11-09T21:23:53.874Z,2.58
2022-11-09T21:26:39.897Z,2.97
2022-11-09T21:29:28.467Z,2.70
2022-11-09T21:31:56.683Z,2.50
2022-11-09T21:34:25.001Z,2.40
2022-11-09T21:36:53.215Z,2.30
2022-11-09T21:39:22.944Z,2.42
2022-11-09T21:41:51.381Z,3.20
2022-11-09T21:44:19.626Z,2.47
2022-11-09T21:46:47.853Z,2.10
2022-11-09T21:49:16.058Z,2.67
2022-11-09T21:51:44.284Z,2.60
2022-11-09T21:54:12.553Z,2.50
2022-11-09T21:56:42.196Z,2.88
2022-11-09T21:59:10.601Z,3.20
2022-11-09T22:01:38.906Z,2.57
2022-11-09T22:04:07.399Z,2.17
2022-11-09T22:06:39.436Z,2.45
2022-11-09T22:09:08.441Z,2.05
2022-11-09T22:11:54.438Z,2.70
2022-11-09T22:14:41.900Z,3.03
2022-11-09T22:17:10.192Z,2.30
2022-11-09T22:19:57.017Z,2.58
2022-11-09T22:22:25.577Z,2.67
2022-11-09T22:24:53.813Z,2.20
2022-11-09T22:27:22.404Z,2.13
2022-11-09T22:29:52.016Z,1.90
2022-11-09T22:32:20.282Z,2.10
2022-11-09T22:34:48.500Z,2.30
2022-11-09T22:37:16.753Z,1.80
2022-11-09T22:39:47.533Z,2.35
2022-11-09T22:42:16.020Z,1.80
2022-11-09T22:44:44.243Z,1.92
2022-11-09T22:47:13.860Z,1.70
2022-11-09T22:49:42.099Z,1.80
2022-11-09T22:52:10.522Z,1.95
2022-11-09T22:54:38.765Z,2.00
2022-11-09T22:57:06.977Z,1.33
2022-11-09T22:59:35.214Z,2.10
2022-11-09T23:02:03.512Z,1.83
2022-11-09T23:04:33.343Z,2.10
2022-11-09T23:07:01.640Z,2.20
2022-11-09T23:09:30.010Z,2.70
2022-11-09T23:11:58.236Z,2.20
2022-11-09T23:14:40.364Z,2.40
2022-11-09T23:17:28.542Z,2.88
2022-11-09T23:19:57.116Z,2.10
2022-11-09T23:22:25.360Z,2.20
2022-11-09T23:25:11.504Z,2.65
2022-11-09T23:27:39.732Z,2.47
2022-11-09T23:30:08.435Z,2.60
2022-11-09T23:32:36.674Z,2.97
2022-11-09T23:35:06.653Z,2.75
2022-11-09T23:37:34.902Z,3.42
2022-11-09T23:40:03.280Z,2.80
2022-11-09T23:42:31.561Z,2.60
2022-11-09T23:44:59.892Z,2.97
2022-11-09T23:47:28.083Z,2.80
2022-11-09T23:49:56.334Z,3.05
2022-11-09T23:52:25.966Z,2.88
2022-11-09T23:54:54.204Z,2.75
2022-11-09T23:57:22.430Z,3.33
2022-11-09T23:59:50.680Z,2.95
